createdAt,value
2023-02-14T00:01:22.986Z,103370.94
2023-02-14T00:03:49.940Z,103381.28
2023-02-14T00:06:16.945Z,103375.06
2023-02-14T00:08:44.914Z,103376.84
2023-02-14T00:11:13.927Z,103385.53
2023-02-14T00:14:01.408Z,103383.06
2023-02-14T00:16:28.505Z,103378.81
2023-02-14T00:19:04.760Z,103377.19
2023-02-14T00:21:36.727Z,103376.34
2023-02-14T00:24:28.794Z,103369.47
2023-02-14T00:26:55.769Z,103372.19
2023-02-14T00:29:30.992Z,103367.28
2023-02-14T00:31:59.326Z,103370.03
2023-02-14T00:34:26.892Z,103363.84
2023-02-14T00:36:53.989Z,103366.19
2023-02-14T00:39:21.096Z,103356.41
2023-02-14T00:41:48.158Z,103365.88
2023-02-14T00:44:17.316Z,103354.38
2023-02-14T00:46:45.492Z,103357.44
2023-02-14T00:49:12.505Z,103363.22
2023-02-14T00:51:39.971Z,103363.69
2023-02-14T00:54:07.099Z,103364.28
2023-02-14T00:56:34.112Z,103368.41
2023-02-14T00:59:01.767Z,103370.72
2023-02-14T01:01:29.199Z,103374.75
2023-02-14T01:03:56.459Z,103377.88
2023-02-14T01:06:23.503Z,103371.66
2023-02-14T01:08:50.506Z,103372.25
2023-02-14T01:11:22.026Z,103374.81
2023-02-14T01:13:50.628Z,103373.84
2023-02-14T01:16:22.040Z,103372.81
2023-02-14T01:18:49.776Z,103369.16
2023-02-14T01:21:31.464Z,103376.81
2023-02-14T01:24:02.662Z,103378.50
2023-02-14T01:26:30.113Z,103376.06
2023-02-14T01:28:57.514Z,103375.25
2023-02-14T01:31:29.473Z,103365.00
2023-02-14T01:33:58.253Z,103374.66
2023-02-14T01:36:33.783Z,103371.38
2023-02-14T01:39:05.721Z,103374.84
2023-02-14T01:41:37.413Z,103376.59
2023-02-14T01:44:32.974Z,103368.84
2023-02-14T01:47:06.733Z,103371.44
2023-02-14T01:49:46.126Z,103366.25
2023-02-14T01:52:28.803Z,103364.50
2023-02-14T01:55:02.934Z,103362.72
2023-02-14T01:57:43.848Z,103360.88
2023-02-14T02:00:30.982Z,103357.31
2023-02-14T02:03:02.436Z,103361.69
2023-02-14T02:05:30.131Z,103360.00
2023-02-14T02:08:00.660Z,103358.22
2023-02-14T02:10:29.092Z,103363.38
2023-02-14T02:13:03.581Z,103354.66
2023-02-14T02:15:35.113Z,103356.28
2023-02-14T02:18:22.810Z,103352.00
2023-02-14T02:21:32.424Z,103349.44
2023-02-14T02:24:48.659Z,103346.09
2023-02-14T02:28:02.726Z,103340.91
2023-02-14T02:30:36.793Z,103341.72
2023-02-14T02:34:05.832Z,103343.44
2023-02-14T02:36:46.827Z,103345.81
2023-02-14T02:39:36.308Z,103338.69
2023-02-14T02:42:36.205Z,103337.75
2023-02-14T02:45:18.176Z,103340.19
2023-02-14T02:47:58.348Z,103331.34
2023-02-14T02:51:01.539Z,103331.47
2023-02-14T02:53:51.388Z,103324.59
2023-02-14T02:56:48.721Z,103328.81
2023-02-14T02:59:37.992Z,103318.34
2023-02-14T03:02:23.000Z,103323.56
2023-02-14T03:04:59.369Z,103328.75
2023-02-14T03:07:41.572Z,103329.56
2023-02-14T03:10:25.304Z,103334.78
2023-02-14T03:13:33.504Z,103339.06
2023-02-14T03:16:29.779Z,103340.84
2023-02-14T03:19:24.786Z,103339.16
2023-02-14T03:22:03.198Z,103330.53
2023-02-14T03:24:56.155Z,103341.88
2023-02-14T03:28:28.735Z,103336.69
2023-02-14T03:31:08.396Z,103335.59
2023-02-14T03:33:47.128Z,103332.78
2023-02-14T03:36:26.899Z,103333.53
2023-02-14T03:39:08.837Z,103331.59
2023-02-14T03:41:51.777Z,103333.22
2023-02-14T03:44:28.434Z,103325.34
2023-02-14T03:47:04.401Z,103332.25
2023-02-14T03:49:39.113Z,103335.38
2023-02-14T03:52:10.263Z,103332.41
2023-02-14T03:54:37.818Z,103330.50
2023-02-14T03:57:26.907Z,103333.69
2023-02-14T03:59:56.379Z,103327.44
2023-02-14T04:02:37.469Z,103338.66
2023-02-14T04:05:15.304Z,103329.94
2023-02-14T04:07:55.917Z,103331.72
2023-02-14T04:10:25.298Z,103335.97
2023-02-14T04:12:53.544Z,103336.63
2023-02-14T04:15:20.541Z,103344.44
2023-02-14T04:18:05.833Z,103344.38
2023-02-14T04:20:34.135Z,103343.97
2023-02-14T04:23:03.299Z,103349.59
2023-02-14T04:25:31.477Z,103349.19
2023-02-14T04:27:58.496Z,103353.13
2023-02-14T04:30:25.489Z,103354.50
2023-02-14T04:32:52.569Z,103349.81
2023-02-14T04:35:19.574Z,103352.13
2023-02-14T04:37:46.745Z,103349.19
2023-02-14T04:40:17.246Z,103350.72
2023-02-14T04:42:46.328Z,103343.50
2023-02-14T04:45:13.651Z,103340.63
2023-02-14T04:47:40.730Z,103336.06
2023-02-14T04:50:08.565Z,103334.84
2023-02-14T04:52:35.559Z,103339.78
2023-02-14T04:55:02.723Z,103333.47
2023-02-14T04:57:29.940Z,103330.63
2023-02-14T04:59:57.037Z,103320.81
2023-02-14T05:02:24.213Z,103324.16
2023-02-14T05:04:51.250Z,103317.91
2023-02-14T05:07:18.213Z,103315.31
2023-02-14T05:09:45.158Z,103311.66
2023-02-14T05:12:12.196Z,103311.66
2023-02-14T05:14:39.109Z,103316.03
2023-02-14T05:17:06.152Z,103311.66
2023-02-14T05:19:33.154Z,103303.72
2023-02-14T05:22:00.101Z,103301.13
2023-02-14T05:24:27.090Z,103302.00
2023-02-14T05:26:54.097Z,103303.00
2023-02-14T05:29:21.142Z,103300.34
2023-02-14T05:31:48.469Z,103304.69
2023-02-14T05:34:15.538Z,103309.00
2023-02-14T05:36:42.558Z,103312.38
2023-02-14T05:39:09.585Z,103316.84
2023-02-14T05:41:36.606Z,103311.50
2023-02-14T05:44:04.272Z,103312.38
2023-02-14T05:46:31.299Z,103307.94
2023-02-14T05:48:59.008Z,103306.31
2023-02-14T05:51:26.008Z,103308.19
2023-02-14T05:53:52.965Z,103310.94
2023-02-14T05:56:19.926Z,103310.03
2023-02-14T05:58:46.868Z,103306.63
2023-02-14T06:01:13.933Z,103304.94
2023-02-14T06:03:40.896Z,103307.63
2023-02-14T06:06:08.144Z,103305.09
2023-02-14T06:08:35.334Z,103306.94
2023-02-14T06:11:02.614Z,103305.44
2023-02-14T06:13:29.789Z,103295.31
2023-02-14T06:15:56.749Z,103309.41
2023-02-14T06:18:27.461Z,103306.16
2023-02-14T06:20:55.266Z,103308.09
2023-02-14T06:23:22.364Z,103301.44
2023-02-14T06:25:49.305Z,103305.97
2023-02-14T06:28:16.281Z,103302.66
2023-02-14T06:30:43.434Z,103305.41
2023-02-14T06:33:10.484Z,103315.13
2023-02-14T06:35:37.475Z,103319.59
2023-02-14T06:38:04.479Z,103318.84
2023-02-14T06:40:31.417Z,103321.59
2023-02-14T06:42:58.490Z,103320.72
2023-02-14T06:45:26.751Z,103324.28
2023-02-14T06:47:53.750Z,103313.75
2023-02-14T06:50:20.781Z,103313.75
2023-02-14T06:52:48.382Z,103322.41
2023-02-14T06:55:15.413Z,103324.03
2023-02-14T06:57:42.798Z,103328.34
2023-02-14T07:00:14.768Z,103331.75
2023-02-14T07:02:42.363Z,103319.69
2023-02-14T07:05:09.738Z,103326.72
2023-02-14T07:07:36.735Z,103331.25
2023-02-14T07:10:04.289Z,103335.00
2023-02-14T07:12:31.317Z,103325.66
2023-02-14T07:14:58.304Z,103333.75
2023-02-14T07:17:25.292Z,103332.28
2023-02-14T07:19:52.280Z,103325.59
2023-02-14T07:22:19.264Z,103333.72
2023-02-14T07:24:46.232Z,103334.00
2023-02-14T07:27:13.279Z,103336.84
2023-02-14T07:29:40.386Z,103338.84
2023-02-14T07:32:07.556Z,103340.81
2023-02-14T07:34:34.682Z,103346.13
2023-02-14T07:37:02.126Z,103355.72
2023-02-14T07:39:29.246Z,103355.88
2023-02-14T07:41:56.228Z,103356.03
2023-02-14T07:44:26.786Z,103346.66
2023-02-14T07:46:53.727Z,103348.59
2023-02-14T07:49:20.741Z,103351.56
2023-02-14T07:51:47.716Z,103359.69
2023-02-14T07:54:14.710Z,103355.59
2023-02-14T07:56:41.805Z,103355.06
2023-02-14T07:59:08.833Z,103350.97
2023-02-14T08:01:35.773Z,103348.75
2023-02-14T08:04:02.896Z,103360.41
2023-02-14T08:06:29.843Z,103351.91
2023-02-14T08:08:56.893Z,103350.56
2023-02-14T08:11:42.461Z,103351.00
2023-02-14T08:14:09.558Z,103345.41
2023-02-14T08:16:38.154Z,103344.16
2023-02-14T08:19:05.839Z,103339.38
2023-02-14T08:21:32.878Z,103335.44
2023-02-14T08:24:00.419Z,103336.81
2023-02-14T08:26:28.770Z,103337.28
2023-02-14T08:28:55.796Z,103340.41
2023-02-14T08:31:35.646Z,103343.53
2023-02-14T08:34:07.406Z,103330.94
2023-02-14T08:36:35.564Z,103329.63
2023-02-14T08:39:04.997Z,103330.97
2023-02-14T08:41:32.946Z,103328.78
2023-02-14T08:43:59.931Z,103338.84
2023-02-14T08:46:27.159Z,103329.72
2023-02-14T08:48:54.929Z,103333.56
2023-02-14T08:51:26.107Z,103328.69
2023-02-14T08:53:53.267Z,103329.19
2023-02-14T08:56:22.591Z,103318.25
2023-02-14T08:58:53.231Z,103331.00
2023-02-14T09:01:20.670Z,103327.06
2023-02-14T09:03:47.717Z,103318.72
2023-02-14T09:06:17.492Z,103321.78
2023-02-14T09:08:45.218Z,103314.31
2023-02-14T09:11:22.061Z,103310.41
2023-02-14T09:13:53.086Z,103312.56
2023-02-14T09:16:23.127Z,103311.25
2023-02-14T09:18:53.330Z,103307.25
2023-02-14T09:21:25.228Z,103301.53
2023-02-14T09:23:52.484Z,103301.94
2023-02-14T09:26:20.609Z,103306.72
2023-02-14T09:28:48.380Z,103298.25
2023-02-14T09:31:20.580Z,103298.63
2023-02-14T09:34:08.790Z,103294.63
2023-02-14T09:36:35.801Z,103301.94
2023-02-14T09:39:03.341Z,103303.13
2023-02-14T09:41:30.380Z,103297.31
2023-02-14T09:44:07.673Z,103293.25
2023-02-14T09:46:48.785Z,103297.81
2023-02-14T09:49:33.621Z,103299.78
2023-02-14T09:52:04.201Z,103304.41
2023-02-14T09:54:35.862Z,103302.94
2023-02-14T09:57:11.778Z,103300.66
2023-02-14T10:00:31.767Z,103291.28
2023-02-14T10:03:35.097Z,103287.19
2023-02-14T10:06:46.760Z,103287.41
2023-02-14T10:09:56.741Z,103288.56
2023-02-14T10:12:34.947Z,103283.53
2023-02-14T10:15:17.939Z,103283.72
2023-02-14T10:17:55.678Z,103280.44
2023-02-14T10:20:41.830Z,103281.59
2023-02-14T10:23:27.608Z,103277.41
2023-02-14T10:26:09.369Z,103266.25
2023-02-14T10:28:50.357Z,103273.47
2023-02-14T10:31:31.109Z,103271.94
2023-02-14T10:34:27.026Z,103268.66
2023-02-14T10:37:30.000Z,103268.00
2023-02-14T10:40:21.445Z,103271.72
2023-02-14T10:43:40.850Z,103273.75
2023-02-14T10:46:38.601Z,103274.03
2023-02-14T10:49:41.255Z,103268.91
2023-02-14T10:52:47.061Z,103262.97
2023-02-14T10:55:32.414Z,103258.75
2023-02-14T10:58:05.797Z,103264.16
2023-02-14T11:00:51.997Z,103259.00
2023-02-14T11:03:20.096Z,103260.88
2023-02-14T11:05:49.421Z,103259.25
2023-02-14T11:08:26.009Z,103251.47
2023-02-14T11:11:16.449Z,103248.97
2023-02-14T11:13:45.125Z,103256.16
2023-02-14T11:16:33.414Z,103249.22
2023-02-14T11:19:18.665Z,103247.63
2023-02-14T11:21:49.578Z,103240.75
2023-02-14T11:24:39.365Z,103236.44
2023-02-14T11:27:12.339Z,103232.19
2023-02-14T11:29:39.202Z,103236.69
2023-02-14T11:32:15.659Z,103226.25
2023-02-14T11:34:59.653Z,103218.44
2023-02-14T11:37:32.548Z,103214.13
2023-02-14T11:40:01.960Z,103211.56
2023-02-14T11:42:42.603Z,103214.28
2023-02-14T11:45:36.805Z,103205.53
2023-02-14T11:48:39.459Z,103211.78
2023-02-14T11:51:15.059Z,103206.56
2023-02-14T11:53:53.503Z,103204.00
2023-02-14T11:56:22.608Z,103202.28
2023-02-14T11:58:59.957Z,103191.78
2023-02-14T12:01:33.505Z,103185.66
2023-02-14T12:04:07.431Z,103178.69
2023-02-14T12:06:36.680Z,103183.13
2023-02-14T12:09:22.136Z,103175.25
2023-02-14T12:12:00.226Z,103170.88
2023-02-14T12:14:35.340Z,103170.91
2023-02-14T12:17:13.375Z,103161.28
2023-02-14T12:20:10.931Z,103163.91
2023-02-14T12:23:01.261Z,103156.91
2023-02-14T12:25:45.214Z,103141.09
2023-02-14T12:28:24.797Z,103144.63
2023-02-14T12:30:51.908Z,103140.22
2023-02-14T12:33:22.202Z,103137.59
2023-02-14T12:36:09.013Z,103138.47
2023-02-14T12:38:58.042Z,103143.78
2023-02-14T12:41:46.637Z,103131.47
2023-02-14T12:44:51.995Z,103134.97
2023-02-14T12:47:40.687Z,103119.13
2023-02-14T12:50:29.236Z,103120.91
2023-02-14T12:53:27.722Z,103111.25
2023-02-14T12:56:19.864Z,103109.44
2023-02-14T12:58:56.742Z,103109.44
2023-02-14T13:01:38.923Z,103099.75
2023-02-14T13:04:29.643Z,103108.56
2023-02-14T13:07:39.094Z,103097.09
2023-02-14T13:10:53.383Z,103092.66
2023-02-14T13:13:42.226Z,103092.66
2023-02-14T13:16:39.059Z,103088.25
2023-02-14T13:19:30.932Z,103081.16
2023-02-14T13:21:59.967Z,103068.81
2023-02-14T13:24:48.149Z,103060.88
2023-02-14T13:27:28.044Z,103063.50
2023-02-14T13:30:02.861Z,103064.38
2023-02-14T13:32:40.470Z,103064.38
2023-02-14T13:35:15.572Z,103059.94
2023-02-14T13:37:53.513Z,103055.50
2023-02-14T13:40:28.132Z,103056.38
2023-02-14T13:43:01.646Z,103047.50
2023-02-14T13:45:41.093Z,103047.47
2023-02-14T13:48:23.058Z,103048.38
2023-02-14T13:50:53.461Z,103059.84
2023-02-14T13:53:49.485Z,103043.09
2023-02-14T13:56:16.374Z,103040.44
2023-02-14T13:58:49.515Z,103042.16
2023-02-14T14:01:35.875Z,103038.63
2023-02-14T14:04:32.058Z,103031.59
2023-02-14T14:07:05.025Z,103041.28
2023-02-14T14:09:41.136Z,103030.72
2023-02-14T14:12:26.497Z,103033.34
2023-02-14T14:15:05.769Z,103032.47
2023-02-14T14:17:40.355Z,103024.50
2023-02-14T14:20:16.677Z,103020.97
2023-02-14T14:22:50.946Z,103025.41
2023-02-14T14:25:44.981Z,103019.25
2023-02-14T14:28:20.640Z,103016.63
2023-02-14T14:30:48.681Z,103010.44
2023-02-14T14:33:25.589Z,103005.16
2023-02-14T14:35:58.880Z,103010.44
2023-02-14T14:38:32.461Z,103008.72
2023-02-14T14:41:01.710Z,103002.56
2023-02-14T14:43:38.135Z,102999.03
2023-02-14T14:46:11.880Z,102998.16
2023-02-14T14:48:52.384Z,102996.41
2023-02-14T14:51:35.971Z,102997.28
2023-02-14T14:54:08.461Z,102996.38
2023-02-14T14:56:47.115Z,102999.97
2023-02-14T14:59:35.153Z,102992.03
2023-02-14T15:02:04.184Z,102998.22
2023-02-14T15:04:33.983Z,102996.47
2023-02-14T15:07:34.921Z,102993.81
2023-02-14T15:10:02.442Z,102985.91
2023-02-14T15:12:49.011Z,102984.16
2023-02-14T15:15:18.438Z,102982.41
2023-02-14T15:17:46.771Z,102980.66
2023-02-14T15:20:21.572Z,102978.88
2023-02-14T15:22:52.570Z,102988.63
2023-02-14T15:25:31.605Z,102992.16
2023-02-14T15:27:58.648Z,102984.25
2023-02-14T15:30:38.034Z,102986.91
2023-02-14T15:33:07.701Z,102986.91
2023-02-14T15:35:42.311Z,102991.31
2023-02-14T15:38:13.575Z,102988.69
2023-02-14T15:40:43.826Z,102993.13
2023-02-14T15:43:21.837Z,102992.25
2023-02-14T15:45:58.319Z,102998.44
2023-02-14T15:48:33.437Z,102981.69
2023-02-14T15:51:02.901Z,102985.22
2023-02-14T15:53:45.835Z,102984.34
2023-02-14T15:56:49.824Z,102983.47
2023-02-14T15:59:22.457Z,102972.91
2023-02-14T16:01:58.937Z,102966.75
2023-02-14T16:04:31.027Z,102967.63
2023-02-14T16:07:13.589Z,102979.06
2023-02-14T16:09:40.681Z,102976.41
2023-02-14T16:12:36.530Z,102977.25
2023-02-14T16:15:24.954Z,102981.66
2023-02-14T16:17:52.348Z,102978.06
2023-02-14T16:20:42.273Z,102982.47
2023-02-14T16:23:28.618Z,102980.63
2023-02-14T16:25:58.981Z,102979.72
2023-02-14T16:28:30.700Z,102984.03
2023-02-14T16:31:03.033Z,102992.75
2023-02-14T16:33:35.495Z,102976.91
2023-02-14T16:36:20.426Z,102983.03
2023-02-14T16:38:47.618Z,102986.41
2023-02-14T16:41:21.703Z,102988.97
2023-02-14T16:43:49.860Z,102988.88
2023-02-14T16:46:22.249Z,102986.13
2023-02-14T16:48:52.138Z,102993.06
2023-02-14T16:51:22.780Z,102982.44
2023-02-14T16:53:50.689Z,102983.19
2023-02-14T16:56:26.819Z,102990.13
2023-02-14T16:58:53.837Z,102988.22
2023-02-14T17:01:20.690Z,102984.63
2023-02-14T17:03:47.680Z,102973.09
2023-02-14T17:06:20.822Z,102985.25
2023-02-14T17:08:51.947Z,102993.88
2023-02-14T17:11:20.396Z,102989.31
2023-02-14T17:13:48.571Z,102991.84
2023-02-14T17:16:17.291Z,102989.03
2023-02-14T17:18:48.981Z,102992.38
2023-02-14T17:21:19.816Z,102994.84
2023-02-14T17:23:46.816Z,102991.13
2023-02-14T17:26:14.305Z,102994.47
2023-02-14T17:28:41.210Z,102991.72
2023-02-14T17:31:08.392Z,103000.34
2023-02-14T17:33:36.018Z,102994.94
2023-02-14T17:36:11.783Z,102991.31
2023-02-14T17:38:40.598Z,102999.91
2023-02-14T17:41:30.045Z,103004.16
2023-02-14T17:44:00.343Z,103004.00
2023-02-14T17:46:29.735Z,102995.16
2023-02-14T17:48:57.917Z,103005.50
2023-02-14T17:51:25.086Z,103001.88
2023-02-14T17:53:52.102Z,103008.69
2023-02-14T17:56:24.891Z,103010.28
2023-02-14T17:58:54.996Z,103004.88
2023-02-14T18:01:25.852Z,103009.91
2023-02-14T18:03:55.914Z,103004.44
2023-02-14T18:06:23.137Z,103001.63
2023-02-14T18:08:53.019Z,103005.00
2023-02-14T18:11:21.117Z,103002.16
2023-02-14T18:13:50.192Z,103005.44
2023-02-14T18:16:19.694Z,103003.56
2023-02-14T18:18:47.949Z,103004.28
2023-02-14T18:21:21.065Z,103003.19
2023-02-14T18:23:48.906Z,103000.38
2023-02-14T18:26:18.654Z,102994.91
2023-02-14T18:28:46.376Z,102999.03
2023-02-14T18:31:18.106Z,102993.53
2023-02-14T18:33:47.936Z,103001.19
2023-02-14T18:36:19.619Z,102992.25
2023-02-14T18:38:48.903Z,102990.28
2023-02-14T18:41:19.543Z,102985.72
2023-02-14T18:43:48.905Z,102974.94
2023-02-14T18:46:22.263Z,102979.97
2023-02-14T18:48:50.644Z,102978.84
2023-02-14T18:51:22.279Z,102983.03
2023-02-14T18:53:52.936Z,102966.28
2023-02-14T18:56:30.201Z,102972.28
2023-02-14T18:59:02.167Z,102966.06
2023-02-14T19:01:36.707Z,102967.78
2023-02-14T19:04:08.510Z,102969.38
2023-02-14T19:06:36.325Z,102961.41
2023-02-14T19:09:08.814Z,102957.00
2023-02-14T19:11:35.945Z,102956.06
2023-02-14T19:14:09.382Z,102951.69
2023-02-14T19:16:43.914Z,102947.31
2023-02-14T19:19:11.285Z,102945.53
2023-02-14T19:21:38.541Z,102942.84
2023-02-14T19:24:07.465Z,102936.59
2023-02-14T19:26:40.318Z,102949.47
2023-02-14T19:29:12.295Z,102941.41
2023-02-14T19:31:48.214Z,102939.47
2023-02-14T19:34:30.789Z,102938.47
2023-02-14T19:37:01.192Z,102936.47
2023-02-14T19:39:29.991Z,102933.69
2023-02-14T19:41:57.708Z,102934.38
2023-02-14T19:44:25.864Z,102932.47
2023-02-14T19:46:54.386Z,102930.53
2023-02-14T19:49:23.432Z,102929.44
2023-02-14T19:51:53.880Z,102920.56
2023-02-14T19:54:22.827Z,102921.25
2023-02-14T19:56:49.763Z,102927.13
2023-02-14T19:59:21.752Z,102927.94
2023-02-14T20:01:55.053Z,102925.28
2023-02-14T20:04:28.585Z,102928.72
2023-02-14T20:06:56.888Z,102920.69
2023-02-14T20:09:25.520Z,102934.47
2023-02-14T20:11:55.713Z,102929.94
2023-02-14T20:14:31.478Z,102935.00
2023-02-14T20:17:02.345Z,102932.19
2023-02-14T20:19:34.276Z,102923.38
2023-02-14T20:22:01.956Z,102929.34
2023-02-14T20:24:32.149Z,102930.03
2023-02-14T20:27:02.339Z,102922.88
2023-02-14T20:29:29.927Z,102914.81
2023-02-14T20:31:59.777Z,102921.63
2023-02-14T20:34:28.252Z,102917.13
2023-02-14T20:36:56.144Z,102917.88
2023-02-14T20:39:30.475Z,102914.16
2023-02-14T20:41:58.484Z,102914.88
2023-02-14T20:44:26.373Z,102915.53
2023-02-14T20:46:56.190Z,102924.03
2023-02-14T20:49:25.895Z,102914.25
2023-02-14T20:51:53.229Z,102921.03
2023-02-14T20:54:24.243Z,102914.75
2023-02-14T20:56:51.900Z,102901.66
2023-02-14T20:59:24.284Z,102905.75
2023-02-14T21:01:51.417Z,102904.75
2023-02-14T21:04:18.306Z,102901.97
2023-02-14T21:06:45.318Z,102892.16
2023-02-14T21:09:12.238Z,102899.75
2023-02-14T21:11:42.494Z,102894.38
2023-02-14T21:14:09.419Z,102894.19
2023-02-14T21:16:36.342Z,102890.59
2023-02-14T21:19:04.122Z,102894.72
2023-02-14T21:21:36.383Z,102893.69
2023-02-14T21:24:14.618Z,102894.47
2023-02-14T21:26:42.968Z,102891.69
2023-02-14T21:29:11.308Z,102891.47
2023-02-14T21:31:39.333Z,102889.56
2023-02-14T21:34:06.386Z,102879.06
2023-02-14T21:36:37.740Z,102873.81
2023-02-14T21:39:06.682Z,102872.91
2023-02-14T21:41:35.629Z,102878.94
2023-02-14T21:44:03.937Z,102869.41
2023-02-14T21:46:35.943Z,102873.75
2023-02-14T21:49:31.201Z,102869.41
2023-02-14T21:51:58.416Z,102873.50
2023-02-14T21:54:25.363Z,102862.97
2023-02-14T21:56:52.256Z,102871.59
2023-02-14T21:59:19.209Z,102865.47
2023-02-14T22:01:46.282Z,102866.34
2023-02-14T22:04:13.461Z,102865.47
2023-02-14T22:06:42.674Z,102861.97
2023-02-14T22:09:14.203Z,102858.44
2023-02-14T22:11:41.675Z,102860.97
2023-02-14T22:14:08.725Z,102862.75
2023-02-14T22:16:38.064Z,102861.94
2023-02-14T22:19:07.384Z,102858.44
2023-02-14T22:21:35.118Z,102851.53
2023-02-14T22:24:02.192Z,102857.59
2023-02-14T22:26:38.765Z,102853.31
2023-02-14T22:29:07.327Z,102848.97
2023-02-14T22:31:41.038Z,102851.88
2023-02-14T22:34:13.724Z,102854.00
2023-02-14T22:36:40.974Z,102857.09
2023-02-14T22:39:09.362Z,102860.84
2023-02-14T22:41:37.851Z,102853.34
2023-02-14T22:44:06.323Z,102857.09
2023-02-14T22:46:36.808Z,102857.31
2023-02-14T22:49:06.272Z,102852.22
2023-02-14T22:51:40.334Z,102854.22
2023-02-14T22:54:12.416Z,102850.09
2023-02-14T22:56:48.281Z,102847.63
2023-02-14T22:59:21.353Z,102851.19
2023-02-14T23:01:51.145Z,102856.44
2023-02-14T23:04:21.789Z,102848.59
2023-02-14T23:06:51.168Z,102848.34
2023-02-14T23:09:18.972Z,102850.63
2023-02-14T23:11:47.443Z,102845.97
2023-02-14T23:14:38.454Z,102849.06
2023-02-14T23:17:24.505Z,102847.03
2023-02-14T23:20:09.990Z,102849.28
2023-02-14T23:22:40.631Z,102849.75
2023-02-14T23:25:11.769Z,102843.44
2023-02-14T23:27:44.270Z,102851.00
2023-02-14T23:30:15.922Z,102850.72
2023-02-14T23:32:43.936Z,102844.44
2023-02-14T23:35:11.635Z,102843.28
2023-02-14T23:37:38.622Z,102845.66
2023-02-14T23:40:07.276Z,102848.91
2023-02-14T23:42:34.234Z,102847.06
2023-02-14T23:45:21.241Z,102850.44
2023-02-14T23:47:48.306Z,102844.16
2023-02-14T23:50:15.631Z,102844.75
2023-02-14T23:52:44.441Z,102838.53
2023-02-14T23:55:11.950Z,102842.75
2023-02-14T23:57:39.555Z,102843.47
